sensor_id;sensor_type;location;lat;lon;timestamp;P1;durP1;ratioP1;P2;durP2;ratioP2
23370;SDS011;11858;51.056;3.712;2022-10-31T00:01:16;23.35;;;21.00;;
23370;SDS011;11858;51.056;3.712;2022-10-31T00:03:44;23.85;;;21.50;;
23370;SDS011;11858;51.056;3.712;2022-10-31T00:06:09;23.92;;;21.60;;
23370;SDS011;11858;51.056;3.712;2022-10-31T00:08:36;23.65;;;21.55;;
23370;SDS011;11858;51.056;3.712;2022-10-31T00:11:01;23.63;;;21.35;;
23370;SDS011;11858;51.056;3.712;2022-10-31T00:13:27;22.27;;;20.48;;
23370;SDS011;11858;51.056;3.712;2022-10-31T00:15:53;24.65;;;22.20;;
23370;SDS011;11858;51.056;3.712;2022-10-31T00:18:19;23.20;;;21.20;;
23370;SDS011;11858;51.056;3.712;2022-10-31T00:20:45;23.38;;;20.85;;
23370;SDS011;11858;51.056;3.712;2022-10-31T00:23:11;24.08;;;21.75;;
23370;SDS011;11858;51.056;3.712;2022-10-31T00:25:37;24.65;;;22.27;;
23370;SDS011;11858;51.056;3.712;2022-10-31T00:28:04;24.40;;;21.88;;
23370;SDS011;11858;51.056;3.712;2022-10-31T00:30:31;23.65;;;21.45;;
23370;SDS011;11858;51.056;3.712;2022-10-31T00:32:58;23.85;;;21.55;;
23370;SDS011;11858;51.056;3.712;2022-10-31T00:35:24;24.50;;;21.95;;
23370;SDS011;11858;51.056;3.712;2022-10-31T00:37:50;23.58;;;21.45;;
23370;SDS011;11858;51.056;3.712;2022-10-31T00:40:17;24.63;;;22.00;;
23370;SDS011;11858;51.056;3.712;2022-10-31T00:42:43;25.27;;;22.77;;
23370;SDS011;11858;51.056;3.712;2022-10-31T00:45:09;25.25;;;22.67;;
23370;SDS011;11858;51.056;3.712;2022-10-31T00:47:35;25.55;;;22.25;;
23370;SDS011;11858;51.056;3.712;2022-10-31T00:50:03;24.63;;;22.23;;
23370;SDS011;11858;51.056;3.712;2022-10-31T00:52:32;24.85;;;22.35;;
23370;SDS011;11858;51.056;3.712;2022-10-31T00:54:58;24.10;;;21.90;;
23370;SDS011;11858;51.056;3.712;2022-10-31T00:57:24;24.88;;;22.63;;
23370;SDS011;11858;51.056;3.712;2022-10-31T00:59:50;24.90;;;22.60;;
23370;SDS011;11858;51.056;3.712;2022-10-31T01:02:15;24.77;;;22.48;;
23370;SDS011;11858;51.056;3.712;2022-10-31T01:04:41;24.75;;;22.48;;
23370;SDS011;11858;51.056;3.712;2022-10-31T01:07:07;25.17;;;22.52;;
23370;SDS011;11858;51.056;3.712;2022-10-31T01:09:33;25.67;;;22.52;;
23370;SDS011;11858;51.056;3.712;2022-10-31T01:11:58;25.98;;;22.73;;
23370;SDS011;11858;51.056;3.712;2022-10-31T01:14:24;24.65;;;22.23;;
23370;SDS011;11858;51.056;3.712;2022-10-31T01:16:50;24.98;;;22.63;;
23370;SDS011;11858;51.056;3.712;2022-10-31T01:19:16;25.88;;;23.45;;
23370;SDS011;11858;51.056;3.712;2022-10-31T01:21:42;24.85;;;22.58;;
23370;SDS011;11858;51.056;3.712;2022-10-31T01:24:08;24.02;;;21.63;;
23370;SDS011;11858;51.056;3.712;2022-10-31T01:26:34;24.20;;;21.80;;
23370;SDS011;11858;51.056;3.712;2022-10-31T01:29:00;25.08;;;22.52;;
23370;SDS011;11858;51.056;3.712;2022-10-31T01:31:29;24.10;;;21.80;;
23370;SDS011;11858;51.056;3.712;2022-10-31T01:33:57;24.50;;;22.20;;
23370;SDS011;11858;51.056;3.712;2022-10-31T01:36:24;25.65;;;23.00;;
23370;SDS011;11858;51.056;3.712;2022-10-31T01:38:56;27.30;;;22.38;;
23370;SDS011;11858;51.056;3.712;2022-10-31T01:41:31;25.67;;;23.08;;
23370;SDS011;11858;51.056;3.712;2022-10-31T01:44:00;25.92;;;23.52;;
23370;SDS011;11858;51.056;3.712;2022-10-31T01:46:35;26.17;;;23.52;;
23370;SDS011;11858;51.056;3.712;2022-10-31T01:49:04;27.83;;;23.33;;
23370;SDS011;11858;51.056;3.712;2022-10-31T01:51:36;25.98;;;23.27;;
23370;SDS011;11858;51.056;3.712;2022-10-31T01:54:06;26.10;;;23.50;;
23370;SDS011;11858;51.056;3.712;2022-10-31T01:56:39;26.90;;;24.13;;
23370;SDS011;11858;51.056;3.712;2022-10-31T01:59:08;29.23;;;24.70;;
23370;SDS011;11858;51.056;3.712;2022-10-31T02:01:37;27.35;;;24.50;;
23370;SDS011;11858;51.056;3.712;2022-10-31T02:04:03;27.52;;;24.17;;
23370;SDS011;11858;51.056;3.712;2022-10-31T02:06:42;27.45;;;24.52;;
23370;SDS011;11858;51.056;3.712;2022-10-31T02:09:11;27.20;;;24.47;;
23370;SDS011;11858;51.056;3.712;2022-10-31T02:11:39;27.20;;;24.50;;
23370;SDS011;11858;51.056;3.712;2022-10-31T02:14:06;28.25;;;23.77;;
23370;SDS011;11858;51.056;3.712;2022-10-31T02:16:32;27.33;;;24.52;;
23370;SDS011;11858;51.056;3.712;2022-10-31T02:18:57;28.13;;;24.20;;
23370;SDS011;11858;51.056;3.712;2022-10-31T02:21:45;28.70;;;24.35;;
23370;SDS011;11858;51.056;3.712;2022-10-31T02:24:25;30.00;;;24.80;;
23370;SDS011;11858;51.056;3.712;2022-10-31T02:31:58;27.55;;;24.63;;
23370;SDS011;11858;51.056;3.712;2022-10-31T02:37:14;27.65;;;24.77;;
23370;SDS011;11858;51.056;3.712;2022-10-31T02:43:11;27.45;;;24.25;;
23370;SDS011;11858;51.056;3.712;2022-10-31T02:46:08;27.90;;;25.08;;
23370;SDS011;11858;51.056;3.712;2022-10-31T02:48:42;28.08;;;25.15;;
23370;SDS011;11858;51.056;3.712;2022-10-31T02:51:11;28.75;;;25.65;;
23370;SDS011;11858;51.056;3.712;2022-10-31T02:53:38;28.20;;;25.17;;
23370;SDS011;11858;51.056;3.712;2022-10-31T02:56:17;28.13;;;25.15;;
23370;SDS011;11858;51.056;3.712;2022-10-31T02:58:48;29.25;;;25.15;;
23370;SDS011;11858;51.056;3.712;2022-10-31T03:11:44;29.92;;;24.95;;
23370;SDS011;11858;51.056;3.712;2022-10-31T03:14:20;28.00;;;24.98;;
23370;SDS011;11858;51.056;3.712;2022-10-31T03:16:59;28.33;;;25.30;;
23370;SDS011;11858;51.056;3.712;2022-10-31T03:19:29;28.40;;;25.38;;
23370;SDS011;11858;51.056;3.712;2022-10-31T03:22:20;28.63;;;25.73;;
23370;SDS011;11858;51.056;3.712;2022-10-31T03:24:47;29.38;;;26.35;;
23370;SDS011;11858;51.056;3.712;2022-10-31T03:27:18;29.83;;;25.10;;
23370;SDS011;11858;51.056;3.712;2022-10-31T03:29:49;30.25;;;26.40;;
23370;SDS011;11858;51.056;3.712;2022-10-31T03:32:22;28.73;;;25.65;;
23370;SDS011;11858;51.056;3.712;2022-10-31T03:34:53;28.05;;;24.65;;
23370;SDS011;11858;51.056;3.712;2022-10-31T03:37:22;31.27;;;25.05;;
23370;SDS011;11858;51.056;3.712;2022-10-31T03:39:51;28.80;;;25.73;;
23370;SDS011;11858;51.056;3.712;2022-10-31T03:42:20;29.05;;;25.30;;
23370;SDS011;11858;51.056;3.712;2022-10-31T03:44:51;28.83;;;25.42;;
23370;SDS011;11858;51.056;3.712;2022-10-31T03:47:23;31.52;;;25.05;;
23370;SDS011;11858;51.056;3.712;2022-10-31T03:49:49;30.92;;;26.17;;
23370;SDS011;11858;51.056;3.712;2022-10-31T03:55:19;30.83;;;27.50;;
23370;SDS011;11858;51.056;3.712;2022-10-31T03:58:11;32.92;;;26.38;;
23370;SDS011;11858;51.056;3.712;2022-10-31T04:00:43;32.00;;;26.33;;
23370;SDS011;11858;51.056;3.712;2022-10-31T04:03:30;39.08;;;35.55;;
23370;SDS011;11858;51.056;3.712;2022-10-31T04:05:59;40.45;;;36.50;;
23370;SDS011;11858;51.056;3.712;2022-10-31T04:08:30;40.83;;;36.60;;
23370;SDS011;11858;51.056;3.712;2022-10-31T04:10:59;40.70;;;36.60;;
23370;SDS011;11858;51.056;3.712;2022-10-31T04:13:28;41.28;;;36.35;;
23370;SDS011;11858;51.056;3.712;2022-10-31T04:15:57;40.28;;;36.15;;
23370;SDS011;11858;51.056;3.712;2022-10-31T04:18:23;39.25;;;35.72;;
23370;SDS011;11858;51.056;3.712;2022-10-31T04:20:58;40.13;;;36.20;;
23370;SDS011;11858;51.056;3.712;2022-10-31T04:23:29;41.85;;;37.38;;
23370;SDS011;11858;51.056;3.712;2022-10-31T04:25:55;41.50;;;37.40;;
23370;SDS011;11858;51.056;3.712;2022-10-31T04:28:21;43.53;;;38.35;;
23370;SDS011;11858;51.056;3.712;2022-10-31T04:30:47;42.17;;;37.85;;
23370;SDS011;11858;51.056;3.712;2022-10-31T04:33:14;41.92;;;37.63;;
23370;SDS011;11858;51.056;3.712;2022-10-31T04:35:40;41.50;;;37.50;;
23370;SDS011;11858;51.056;3.712;2022-10-31T04:38:06;41.63;;;37.30;;
23370;SDS011;11858;51.056;3.712;2022-10-31T04:40:31;41.00;;;36.90;;
23370;SDS011;11858;51.056;3.712;2022-10-31T04:42:57;38.95;;;35.13;;
23370;SDS011;11858;51.056;3.712;2022-10-31T04:45:23;42.88;;;38.45;;
23370;SDS011;11858;51.056;3.712;2022-10-31T04:47:49;40.80;;;36.92;;
23370;SDS011;11858;51.056;3.712;2022-10-31T04:50:15;50.35;;;41.17;;
23370;SDS011;11858;51.056;3.712;2022-10-31T04:52:44;44.22;;;39.25;;
23370;SDS011;11858;51.056;3.712;2022-10-31T04:55:11;43.95;;;39.15;;
23370;SDS011;11858;51.056;3.712;2022-10-31T04:57:55;41.35;;;37.17;;
23370;SDS011;11858;51.056;3.712;2022-10-31T05:00:21;40.78;;;36.72;;
23370;SDS011;11858;51.056;3.712;2022-10-31T05:02:48;42.65;;;38.03;;
23370;SDS011;11858;51.056;3.712;2022-10-31T05:05:16;42.58;;;38.03;;
23370;SDS011;11858;51.056;3.712;2022-10-31T05:07:44;40.10;;;36.08;;
23370;SDS011;11858;51.056;3.712;2022-10-31T05:10:12;39.40;;;35.70;;
23370;SDS011;11858;51.056;3.712;2022-10-31T05:12:46;40.88;;;36.88;;
23370;SDS011;11858;51.056;3.712;2022-10-31T05:15:13;42.38;;;37.90;;
23370;SDS011;11858;51.056;3.712;2022-10-31T05:17:39;47.80;;;39.40;;
23370;SDS011;11858;51.056;3.712;2022-10-31T05:20:05;41.85;;;37.88;;
23370;SDS011;11858;51.056;3.712;2022-10-31T05:22:31;43.28;;;39.00;;
23370;SDS011;11858;51.056;3.712;2022-10-31T05:24:56;40.78;;;36.58;;
23370;SDS011;11858;51.056;3.712;2022-10-31T05:27:22;46.47;;;38.05;;
23370;SDS011;11858;51.056;3.712;2022-10-31T05:29:48;43.33;;;39.35;;
23370;SDS011;11858;51.056;3.712;2022-10-31T05:32:14;42.70;;;38.13;;
23370;SDS011;11858;51.056;3.712;2022-10-31T05:34:40;41.60;;;37.42;;
23370;SDS011;11858;51.056;3.712;2022-10-31T05:37:05;36.70;;;28.65;;
23370;SDS011;11858;51.056;3.712;2022-10-31T05:39:31;40.03;;;30.08;;
23370;SDS011;11858;51.056;3.712;2022-10-31T05:41:57;40.40;;;28.95;;
23370;SDS011;11858;51.056;3.712;2022-10-31T05:44:23;35.50;;;28.08;;
23370;SDS011;11858;51.056;3.712;2022-10-31T05:46:48;39.05;;;29.77;;
23370;SDS011;11858;51.056;3.712;2022-10-31T05:49:14;38.10;;;29.25;;
23370;SDS011;11858;51.056;3.712;2022-10-31T05:51:41;35.45;;;29.08;;
23370;SDS011;11858;51.056;3.712;2022-10-31T05:54:08;41.90;;;31.65;;
23370;SDS011;11858;51.056;3.712;2022-10-31T05:56:33;39.00;;;30.85;;
23370;SDS011;11858;51.056;3.712;2022-10-31T05:58:59;46.40;;;32.55;;
23370;SDS011;11858;51.056;3.712;2022-10-31T06:01:25;40.80;;;30.60;;
23370;SDS011;11858;51.056;3.712;2022-10-31T06:03:51;45.08;;;31.77;;
23370;SDS011;11858;51.056;3.712;2022-10-31T06:06:17;42.78;;;30.42;;
23370;SDS011;11858;51.056;3.712;2022-10-31T06:08:43;39.55;;;30.75;;
23370;SDS011;11858;51.056;3.712;2022-10-31T06:11:09;43.58;;;29.98;;
23370;SDS011;11858;51.056;3.712;2022-10-31T06:13:34;36.88;;;30.58;;
23370;SDS011;11858;51.056;3.712;2022-10-31T06:16:00;41.55;;;31.10;;
23370;SDS011;11858;51.056;3.712;2022-10-31T06:18:26;47.70;;;31.55;;
23370;SDS011;11858;51.056;3.712;2022-10-31T06:20:52;45.10;;;32.03;;
23370;SDS011;11858;51.056;3.712;2022-10-31T06:23:18;41.08;;;31.38;;
23370;SDS011;11858;51.056;3.712;2022-10-31T06:25:48;43.38;;;30.90;;
23370;SDS011;11858;51.056;3.712;2022-10-31T06:28:17;39.85;;;30.45;;
23370;SDS011;11858;51.056;3.712;2022-10-31T06:30:42;39.45;;;30.95;;
23370;SDS011;11858;51.056;3.712;2022-10-31T06:33:08;43.03;;;30.27;;
23370;SDS011;11858;51.056;3.712;2022-10-31T06:35:34;43.28;;;29.95;;
23370;SDS011;11858;51.056;3.712;2022-10-31T06:38:00;35.20;;;28.40;;
23370;SDS011;11858;51.056;3.712;2022-10-31T06:40:26;44.30;;;28.17;;
23370;SDS011;11858;51.056;3.712;2022-10-31T06:42:55;35.45;;;28.30;;
23370;SDS011;11858;51.056;3.712;2022-10-31T06:45:22;32.37;;;27.73;;
23370;SDS011;11858;51.056;3.712;2022-10-31T06:47:51;36.90;;;27.67;;
23370;SDS011;11858;51.056;3.712;2022-10-31T06:50:19;35.17;;;27.05;;
23370;SDS011;11858;51.056;3.712;2022-10-31T06:55:22;37.47;;;27.70;;
23370;SDS011;11858;51.056;3.712;2022-10-31T06:57:59;33.05;;;26.83;;
23370;SDS011;11858;51.056;3.712;2022-10-31T07:00:26;37.33;;;26.15;;
23370;SDS011;11858;51.056;3.712;2022-10-31T07:03:01;34.85;;;26.33;;
23370;SDS011;11858;51.056;3.712;2022-10-31T07:05:29;33.30;;;26.85;;
23370;SDS011;11858;51.056;3.712;2022-10-31T07:07:56;33.22;;;28.33;;
23370;SDS011;11858;51.056;3.712;2022-10-31T07:10:25;33.55;;;27.50;;
23370;SDS011;11858;51.056;3.712;2022-10-31T07:12:55;36.35;;;28.35;;
23370;SDS011;11858;51.056;3.712;2022-10-31T07:15:22;30.27;;;27.15;;
23370;SDS011;11858;51.056;3.712;2022-10-31T07:17:49;31.60;;;27.02;;
23370;SDS011;11858;51.056;3.712;2022-10-31T07:20:15;40.53;;;29.63;;
23370;SDS011;11858;51.056;3.712;2022-10-31T07:22:41;33.17;;;27.80;;
23370;SDS011;11858;51.056;3.712;2022-10-31T07:25:07;32.47;;;26.50;;
23370;SDS011;11858;51.056;3.712;2022-10-31T07:30:03;31.48;;;26.73;;
23370;SDS011;11858;51.056;3.712;2022-10-31T07:32:40;30.55;;;27.15;;
23370;SDS011;11858;51.056;3.712;2022-10-31T07:35:10;37.03;;;27.35;;
23370;SDS011;11858;51.056;3.712;2022-10-31T07:37:38;31.45;;;26.98;;
23370;SDS011;11858;51.056;3.712;2022-10-31T07:40:04;32.30;;;26.15;;
23370;SDS011;11858;51.056;3.712;2022-10-31T07:42:38;33.78;;;26.88;;
23370;SDS011;11858;51.056;3.712;2022-10-31T07:45:06;29.55;;;26.48;;
23370;SDS011;11858;51.056;3.712;2022-10-31T07:47:38;31.02;;;25.75;;
23370;SDS011;11858;51.056;3.712;2022-10-31T07:50:08;30.73;;;25.88;;
23370;SDS011;11858;51.056;3.712;2022-10-31T07:52:35;35.08;;;26.58;;
23370;SDS011;11858;51.056;3.712;2022-10-31T07:55:01;29.33;;;26.13;;
23370;SDS011;11858;51.056;3.712;2022-10-31T07:57:27;38.55;;;27.13;;
23370;SDS011;11858;51.056;3.712;2022-10-31T07:59:53;34.83;;;27.50;;
23370;SDS011;11858;51.056;3.712;2022-10-31T08:02:19;30.73;;;27.42;;
23370;SDS011;11858;51.056;3.712;2022-10-31T08:04:45;30.65;;;27.35;;
23370;SDS011;11858;51.056;3.712;2022-10-31T08:07:11;37.08;;;28.10;;
23370;SDS011;11858;51.056;3.712;2022-10-31T08:09:37;30.92;;;27.58;;
23370;SDS011;11858;51.056;3.712;2022-10-31T08:12:03;34.47;;;28.77;;
23370;SDS011;11858;51.056;3.712;2022-10-31T08:14:29;33.22;;;27.60;;
23370;SDS011;11858;51.056;3.712;2022-10-31T08:16:55;35.40;;;28.50;;
23370;SDS011;11858;51.056;3.712;2022-10-31T08:19:21;32.05;;;28.42;;
23370;SDS011;11858;51.056;3.712;2022-10-31T08:21:50;32.63;;;28.42;;
23370;SDS011;11858;51.056;3.712;2022-10-31T08:24:16;30.75;;;27.63;;
23370;SDS011;11858;51.056;3.712;2022-10-31T08:26:42;33.55;;;28.17;;
23370;SDS011;11858;51.056;3.712;2022-10-31T08:29:08;31.00;;;27.50;;
23370;SDS011;11858;51.056;3.712;2022-10-31T08:31:34;31.10;;;27.77;;
23370;SDS011;11858;51.056;3.712;2022-10-31T08:34:00;30.10;;;27.27;;
23370;SDS011;11858;51.056;3.712;2022-10-31T08:36:26;30.55;;;27.33;;
23370;SDS011;11858;51.056;3.712;2022-10-31T08:38:54;30.20;;;27.05;;
23370;SDS011;11858;51.056;3.712;2022-10-31T08:41:20;29.48;;;26.23;;
23370;SDS011;11858;51.056;3.712;2022-10-31T08:43:46;30.58;;;27.27;;
23370;SDS011;11858;51.056;3.712;2022-10-31T08:46:12;31.08;;;27.45;;
23370;SDS011;11858;51.056;3.712;2022-10-31T08:48:39;30.60;;;27.30;;
23370;SDS011;11858;51.056;3.712;2022-10-31T08:51:05;30.77;;;27.52;;
23370;SDS011;11858;51.056;3.712;2022-10-31T08:53:31;31.63;;;27.98;;
23370;SDS011;11858;51.056;3.712;2022-10-31T08:55:57;31.17;;;27.70;;
23370;SDS011;11858;51.056;3.712;2022-10-31T08:58:23;32.05;;;27.10;;
23370;SDS011;11858;51.056;3.712;2022-10-31T09:00:50;33.65;;;28.52;;
23370;SDS011;11858;51.056;3.712;2022-10-31T09:03:19;30.70;;;27.55;;
23370;SDS011;11858;51.056;3.712;2022-10-31T09:05:48;32.60;;;28.92;;
23370;SDS011;11858;51.056;3.712;2022-10-31T09:08:14;31.15;;;27.75;;
23370;SDS011;11858;51.056;3.712;2022-10-31T09:10:41;32.67;;;29.52;;
23370;SDS011;11858;51.056;3.712;2022-10-31T09:13:11;31.13;;;27.92;;
23370;SDS011;11858;51.056;3.712;2022-10-31T09:15:49;33.08;;;29.58;;
23370;SDS011;11858;51.056;3.712;2022-10-31T09:18:16;32.70;;;29.45;;
23370;SDS011;11858;51.056;3.712;2022-10-31T09:20:44;34.38;;;28.92;;
23370;SDS011;11858;51.056;3.712;2022-10-31T09:23:16;31.77;;;28.30;;
23370;SDS011;11858;51.056;3.712;2022-10-31T09:25:45;32.10;;;28.90;;
23370;SDS011;11858;51.056;3.712;2022-10-31T09:28:13;33.40;;;30.23;;
23370;SDS011;11858;51.056;3.712;2022-10-31T09:30:40;31.67;;;27.80;;
23370;SDS011;11858;51.056;3.712;2022-10-31T09:33:10;35.05;;;29.17;;
23370;SDS011;11858;51.056;3.712;2022-10-31T09:35:37;32.35;;;28.92;;
23370;SDS011;11858;51.056;3.712;2022-10-31T09:38:08;31.75;;;28.63;;
23370;SDS011;11858;51.056;3.712;2022-10-31T09:40:43;31.08;;;28.20;;
23370;SDS011;11858;51.056;3.712;2022-10-31T09:51:20;32.17;;;28.83;;
23370;SDS011;11858;51.056;3.712;2022-10-31T09:54:10;33.25;;;29.27;;
23370;SDS011;11858;51.056;3.712;2022-10-31T09:56:43;31.90;;;28.70;;
23370;SDS011;11858;51.056;3.712;2022-10-31T10:05:17;33.95;;;29.95;;
23370;SDS011;11858;51.056;3.712;2022-10-31T10:07:49;32.45;;;29.13;;
23370;SDS011;11858;51.056;3.712;2022-10-31T10:30:30;34.50;;;29.60;;
23370;SDS011;11858;51.056;3.712;2022-10-31T10:33:27;33.35;;;27.95;;
23370;SDS011;11858;51.056;3.712;2022-10-31T10:39:20;30.45;;;27.30;;
23370;SDS011;11858;51.056;3.712;2022-10-31T10:41:57;30.35;;;27.33;;
23370;SDS011;11858;51.056;3.712;2022-10-31T10:44:46;30.58;;;26.75;;
23370;SDS011;11858;51.056;3.712;2022-10-31T10:47:43;31.02;;;27.98;;
23370;SDS011;11858;51.056;3.712;2022-10-31T10:50:19;30.10;;;26.97;;
23370;SDS011;11858;51.056;3.712;2022-10-31T10:52:50;29.70;;;26.58;;
23370;SDS011;11858;51.056;3.712;2022-10-31T10:58:18;29.08;;;26.27;;
23370;SDS011;11858;51.056;3.712;2022-10-31T11:00:44;29.05;;;26.15;;
23370;SDS011;11858;51.056;3.712;2022-10-31T11:03:13;29.13;;;26.20;;
23370;SDS011;11858;51.056;3.712;2022-10-31T11:05:52;31.58;;;28.27;;
23370;SDS011;11858;51.056;3.712;2022-10-31T11:08:25;32.65;;;28.05;;
23370;SDS011;11858;51.056;3.712;2022-10-31T11:10:57;30.77;;;27.42;;
23370;SDS011;11858;51.056;3.712;2022-10-31T11:13:41;32.58;;;27.50;;
23370;SDS011;11858;51.056;3.712;2022-10-31T11:16:43;31.58;;;28.20;;
23370;SDS011;11858;51.056;3.712;2022-10-31T11:19:07;30.33;;;27.35;;
23370;SDS011;11858;51.056;3.712;2022-10-31T11:21:41;32.30;;;28.92;;
23370;SDS011;11858;51.056;3.712;2022-10-31T11:26:36;31.83;;;28.52;;
23370;SDS011;11858;51.056;3.712;2022-10-31T11:29:03;32.97;;;29.42;;
23370;SDS011;11858;51.056;3.712;2022-10-31T11:31:34;32.67;;;28.58;;
23370;SDS011;11858;51.056;3.712;2022-10-31T11:34:01;31.80;;;28.45;;
23370;SDS011;11858;51.056;3.712;2022-10-31T11:36:33;30.75;;;27.58;;
23370;SDS011;11858;51.056;3.712;2022-10-31T11:39:03;32.15;;;28.77;;
23370;SDS011;11858;51.056;3.712;2022-10-31T11:41:32;31.50;;;28.20;;
23370;SDS011;11858;51.056;3.712;2022-10-31T11:44:01;30.63;;;27.65;;
23370;SDS011;11858;51.056;3.712;2022-10-31T11:48:59;31.23;;;28.02;;
23370;SDS011;11858;51.056;3.712;2022-10-31T11:51:27;30.10;;;27.13;;
23370;SDS011;11858;51.056;3.712;2022-10-31T11:53:57;33.10;;;29.17;;
23370;SDS011;11858;51.056;3.712;2022-10-31T11:56:24;32.53;;;29.05;;
23370;SDS011;11858;51.056;3.712;2022-10-31T11:59:03;32.75;;;29.25;;
23370;SDS011;11858;51.056;3.712;2022-10-31T12:01:31;32.05;;;28.85;;
23370;SDS011;11858;51.056;3.712;2022-10-31T12:04:06;31.35;;;28.38;;
23370;SDS011;11858;51.056;3.712;2022-10-31T12:06:35;32.38;;;29.25;;
23370;SDS011;11858;51.056;3.712;2022-10-31T12:09:07;33.60;;;30.02;;
23370;SDS011;11858;51.056;3.712;2022-10-31T12:14:59;32.75;;;29.25;;
23370;SDS011;11858;51.056;3.712;2022-10-31T12:17:48;31.77;;;28.05;;
23370;SDS011;11858;51.056;3.712;2022-10-31T12:23:37;32.53;;;29.13;;
23370;SDS011;11858;51.056;3.712;2022-10-31T12:26:23;35.55;;;29.60;;
23370;SDS011;11858;51.056;3.712;2022-10-31T12:31:56;33.40;;;30.02;;
23370;SDS011;11858;51.056;3.712;2022-10-31T12:51:08;34.22;;;30.65;;
23370;SDS011;11858;51.056;3.712;2022-10-31T12:59:18;33.88;;;30.17;;
23370;SDS011;11858;51.056;3.712;2022-10-31T13:02:29;36.63;;;32.85;;
23370;SDS011;11858;51.056;3.712;2022-10-31T13:04:59;35.80;;;32.13;;
23370;SDS011;11858;51.056;3.712;2022-10-31T13:10:02;34.58;;;31.02;;
23370;SDS011;11858;51.056;3.712;2022-10-31T13:12:34;35.20;;;31.65;;
23370;SDS011;11858;51.056;3.712;2022-10-31T13:15:03;34.20;;;30.60;;
23370;SDS011;11858;51.056;3.712;2022-10-31T13:17:57;40.72;;;31.00;;
23370;SDS011;11858;51.056;3.712;2022-10-31T13:20:30;33.30;;;29.77;;
23370;SDS011;11858;51.056;3.712;2022-10-31T13:23:22;37.42;;;29.20;;
23370;SDS011;11858;51.056;3.712;2022-10-31T13:25:49;33.03;;;29.33;;
23370;SDS011;11858;51.056;3.712;2022-10-31T13:28:40;32.60;;;29.30;;
23370;SDS011;11858;51.056;3.712;2022-10-31T13:31:15;31.20;;;28.08;;
23370;SDS011;11858;51.056;3.712;2022-10-31T13:33:52;30.30;;;27.05;;
23370;SDS011;11858;51.056;3.712;2022-10-31T13:36:24;30.30;;;27.20;;
23370;SDS011;11858;51.056;3.712;2022-10-31T13:41:49;30.35;;;27.10;;
23370;SDS011;11858;51.056;3.712;2022-10-31T13:44:40;30.95;;;27.65;;
23370;SDS011;11858;51.056;3.712;2022-10-31T13:50:02;30.80;;;27.48;;
23370;SDS011;11858;51.056;3.712;2022-10-31T13:52:30;29.80;;;26.77;;
23370;SDS011;11858;51.056;3.712;2022-10-31T13:54:55;30.83;;;27.67;;
23370;SDS011;11858;51.056;3.712;2022-10-31T13:57:31;32.33;;;28.13;;
23370;SDS011;11858;51.056;3.712;2022-10-31T14:02:48;31.85;;;27.85;;
23370;SDS011;11858;51.056;3.712;2022-10-31T14:05:30;32.22;;;28.20;;
23370;SDS011;11858;51.056;3.712;2022-10-31T14:07:58;33.15;;;29.63;;
23370;SDS011;11858;51.056;3.712;2022-10-31T14:10:36;30.77;;;27.48;;
23370;SDS011;11858;51.056;3.712;2022-10-31T14:16:00;34.03;;;28.52;;
23370;SDS011;11858;51.056;3.712;2022-10-31T14:18:35;31.10;;;27.88;;
23370;SDS011;11858;51.056;3.712;2022-10-31T14:26:53;33.00;;;29.38;;
23370;SDS011;11858;51.056;3.712;2022-10-31T14:29:22;35.95;;;29.23;;
23370;SDS011;11858;51.056;3.712;2022-10-31T14:31:54;35.10;;;30.42;;
23370;SDS011;11858;51.056;3.712;2022-10-31T14:34:34;34.65;;;31.02;;
23370;SDS011;11858;51.056;3.712;2022-10-31T14:37:11;36.00;;;30.63;;
23370;SDS011;11858;51.056;3.712;2022-10-31T14:46:02;38.97;;;31.95;;
23370;SDS011;11858;51.056;3.712;2022-10-31T14:54:07;48.17;;;31.08;;
23370;SDS011;11858;51.056;3.712;2022-10-31T14:56:53;36.95;;;29.88;;
23370;SDS011;11858;51.056;3.712;2022-10-31T14:59:28;33.38;;;29.98;;
23370;SDS011;11858;51.056;3.712;2022-10-31T15:02:18;34.50;;;29.98;;
23370;SDS011;11858;51.056;3.712;2022-10-31T15:04:49;31.35;;;27.85;;
23370;SDS011;11858;51.056;3.712;2022-10-31T15:07:25;32.55;;;27.90;;
23370;SDS011;11858;51.056;3.712;2022-10-31T15:09:55;34.95;;;29.15;;
23370;SDS011;11858;51.056;3.712;2022-10-31T15:12:30;36.22;;;30.02;;
23370;SDS011;11858;51.056;3.712;2022-10-31T15:15:17;40.13;;;31.45;;
23370;SDS011;11858;51.056;3.712;2022-10-31T15:17:59;41.00;;;32.35;;
23370;SDS011;11858;51.056;3.712;2022-10-31T15:20:30;40.45;;;34.15;;
23370;SDS011;11858;51.056;3.712;2022-10-31T15:23:09;44.28;;;35.40;;
23370;SDS011;11858;51.056;3.712;2022-10-31T15:26:00;42.85;;;34.00;;
23370;SDS011;11858;51.056;3.712;2022-10-31T15:28:27;40.50;;;36.15;;
23370;SDS011;11858;51.056;3.712;2022-10-31T15:30:55;41.05;;;35.63;;
23370;SDS011;11858;51.056;3.712;2022-10-31T15:33:24;46.28;;;36.35;;
23370;SDS011;11858;51.056;3.712;2022-10-31T15:35:59;46.10;;;35.63;;
23370;SDS011;11858;51.056;3.712;2022-10-31T15:38:26;46.40;;;35.13;;
23370;SDS011;11858;51.056;3.712;2022-10-31T15:41:04;45.65;;;34.63;;
23370;SDS011;11858;51.056;3.712;2022-10-31T15:43:43;41.88;;;35.42;;
23370;SDS011;11858;51.056;3.712;2022-10-31T15:46:10;42.92;;;34.85;;
23370;SDS011;11858;51.056;3.712;2022-10-31T15:48:36;44.17;;;35.80;;
23370;SDS011;11858;51.056;3.712;2022-10-31T15:51:03;44.58;;;34.78;;
23370;SDS011;11858;51.056;3.712;2022-10-31T15:53:37;43.63;;;35.00;;
23370;SDS011;11858;51.056;3.712;2022-10-31T15:56:10;47.42;;;35.40;;
23370;SDS011;11858;51.056;3.712;2022-10-31T15:58:44;41.40;;;33.40;;
23370;SDS011;11858;51.056;3.712;2022-10-31T16:01:19;41.28;;;34.50;;
23370;SDS011;11858;51.056;3.712;2022-10-31T16:04:19;39.88;;;33.88;;
23370;SDS011;11858;51.056;3.712;2022-10-31T16:07:00;42.35;;;33.83;;
23370;SDS011;11858;51.056;3.712;2022-10-31T16:09:36;38.97;;;32.47;;
23370;SDS011;11858;51.056;3.712;2022-10-31T16:12:02;40.85;;;32.28;;
23370;SDS011;11858;51.056;3.712;2022-10-31T16:14:29;42.00;;;32.30;;
23370;SDS011;11858;51.056;3.712;2022-10-31T16:16:58;40.08;;;31.35;;
23370;SDS011;11858;51.056;3.712;2022-10-31T16:19:35;37.55;;;31.10;;
23370;SDS011;11858;51.056;3.712;2022-10-31T16:22:09;43.80;;;30.77;;
23370;SDS011;11858;51.056;3.712;2022-10-31T16:24:48;44.92;;;31.10;;
23370;SDS011;11858;51.056;3.712;2022-10-31T16:27:19;38.88;;;30.83;;
23370;SDS011;11858;51.056;3.712;2022-10-31T16:29:50;36.55;;;30.60;;
23370;SDS011;11858;51.056;3.712;2022-10-31T16:32:27;42.60;;;31.42;;
23370;SDS011;11858;51.056;3.712;2022-10-31T16:35:16;41.40;;;31.65;;
23370;SDS011;11858;51.056;3.712;2022-10-31T16:37:44;35.90;;;30.70;;
23370;SDS011;11858;51.056;3.712;2022-10-31T16:40:10;38.08;;;30.90;;
23370;SDS011;11858;51.056;3.712;2022-10-31T16:42:40;37.07;;;30.20;;
23370;SDS011;11858;51.056;3.712;2022-10-31T16:45:07;41.55;;;30.90;;
23370;SDS011;11858;51.056;3.712;2022-10-31T16:47:39;40.35;;;30.42;;
23370;SDS011;11858;51.056;3.712;2022-10-31T16:50:10;41.05;;;30.92;;
23370;SDS011;11858;51.056;3.712;2022-10-31T16:52:38;39.42;;;31.58;;
23370;SDS011;11858;51.056;3.712;2022-10-31T16:55:04;41.35;;;30.80;;
23370;SDS011;11858;51.056;3.712;2022-10-31T16:57:31;39.17;;;30.67;;
23370;SDS011;11858;51.056;3.712;2022-10-31T16:59:56;38.97;;;30.95;;